Terminal Aerodrome Forecast
Issued by NWS

Current Version | Previous Version | Text Only | Print | Product List | Glossary Off
Versions: 1 2 3 4 5 6 7 8 9 10 11 12 13 14 15 16 17 18 19 20 21 22 23 24 25 26 27 28

000
FTUS41 KPBZ 022100 AAB
TAFHLG
TAF AMD
KHLG 022159Z 0222/0318 25012G22KT P6SM BKN040
     FM030000 24010KT P6SM BKN050
     FM030800 26003KT 4SM BR SCT250
     FM031000 00000KT 2SM BR SKC
     FM031300 VRB04KT P6SM SCT040=

USA.gov is the U.S. government's official web portal to all federal, state and local government web resources and services.